sensor_id;sensor_type;location;lat;lon;timestamp;temperature;humidity
24087;DHT22;22893;50.572;7.234;2022-07-29T01:10:28;23.80;71.60
24087;DHT22;22893;50.572;7.234;2022-07-29T01:12:58;23.80;71.60
24087;DHT22;22893;50.572;7.234;2022-07-29T01:15:27;23.80;71.60
24087;DHT22;22893;50.572;7.234;2022-07-29T01:18:12;23.80;71.40
24087;DHT22;22893;50.572;7.234;2022-07-29T01:21:16;23.80;71.30
24087;DHT22;22893;50.572;7.234;2022-07-29T01:26:31;23.80;71.50
24087;DHT22;22893;50.572;7.234;2022-07-29T01:29:02;23.80;71.50
24087;DHT22;22893;50.572;7.234;2022-07-29T01:31:57;23.80;71.40
24087;DHT22;22893;50.572;7.234;2022-07-29T01:34:31;23.80;71.40
24087;DHT22;22893;50.572;7.234;2022-07-29T01:39:42;23.70;71.70
24087;DHT22;22893;50.572;7.234;2022-07-29T01:42:14;23.70;72.10
24087;DHT22;22893;50.572;7.234;2022-07-29T01:50:37;23.80;71.60
24087;DHT22;22893;50.572;7.234;2022-07-29T01:53:09;23.80;71.40
24087;DHT22;22893;50.572;7.234;2022-07-29T01:55:41;23.80;71.40
24087;DHT22;22893;50.572;7.234;2022-07-29T01:58:11;23.80;71.60
24087;DHT22;22893;50.572;7.234;2022-07-29T02:00:39;23.70;71.60
24087;DHT22;22893;50.572;7.234;2022-07-29T02:03:10;23.70;71.40
24087;DHT22;22893;50.572;7.234;2022-07-29T02:05:40;23.70;71.30
24087;DHT22;22893;50.572;7.234;2022-07-29T02:08:09;23.80;71.50
24087;DHT22;22893;50.572;7.234;2022-07-29T02:10:38;23.70;71.50
24087;DHT22;22893;50.572;7.234;2022-07-29T02:13:09;23.70;71.50
24087;DHT22;22893;50.572;7.234;2022-07-29T02:15:38;23.70;71.60
24087;DHT22;22893;50.572;7.234;2022-07-29T02:18:15;23.70;71.60
24087;DHT22;22893;50.572;7.234;2022-07-29T02:20:47;23.70;72.50
24087;DHT22;22893;50.572;7.234;2022-07-29T02:23:17;23.70;71.60
24087;DHT22;22893;50.572;7.234;2022-07-29T02:25:47;23.70;71.50
24087;DHT22;22893;50.572;7.234;2022-07-29T02:28:17;23.70;71.30
24087;DHT22;22893;50.572;7.234;2022-07-29T02:30:46;23.70;71.40
24087;DHT22;22893;50.572;7.234;2022-07-29T02:33:15;23.70;71.50
24087;DHT22;22893;50.572;7.234;2022-07-29T02:35:44;23.70;71.30
24087;DHT22;22893;50.572;7.234;2022-07-29T02:38:14;23.70;71.30
24087;DHT22;22893;50.572;7.234;2022-07-29T02:41:08;23.70;71.40
24087;DHT22;22893;50.572;7.234;2022-07-29T02:43:39;23.70;71.60
24087;DHT22;22893;50.572;7.234;2022-07-29T02:46:11;23.60;71.50
24087;DHT22;22893;50.572;7.234;2022-07-29T02:48:44;23.60;71.60
24087;DHT22;22893;50.572;7.234;2022-07-29T02:51:19;23.60;71.60
24087;DHT22;22893;50.572;7.234;2022-07-29T02:53:51;23.60;71.60
24087;DHT22;22893;50.572;7.234;2022-07-29T02:56:22;23.40;73.10
24087;DHT22;22893;50.572;7.234;2022-07-29T02:58:53;23.30;73.20
24087;DHT22;22893;50.572;7.234;2022-07-29T03:01:24;23.30;73.30
24087;DHT22;22893;50.572;7.234;2022-07-29T03:03:55;23.30;73.30
24087;DHT22;22893;50.572;7.234;2022-07-29T03:06:25;23.30;73.30
24087;DHT22;22893;50.572;7.234;2022-07-29T03:08:54;23.30;73.30
24087;DHT22;22893;50.572;7.234;2022-07-29T03:11:22;23.30;73.20
24087;DHT22;22893;50.572;7.234;2022-07-29T03:13:51;23.30;73.30
24087;DHT22;22893;50.572;7.234;2022-07-29T03:16:19;23.20;73.20
24087;DHT22;22893;50.572;7.234;2022-07-29T03:18:48;23.20;73.20
24087;DHT22;22893;50.572;7.234;2022-07-29T03:21:17;23.20;73.20
24087;DHT22;22893;50.572;7.234;2022-07-29T03:23:45;23.30;73.20
24087;DHT22;22893;50.572;7.234;2022-07-29T03:26:13;23.20;73.10
24087;DHT22;22893;50.572;7.234;2022-07-29T03:28:41;23.20;73.20
24087;DHT22;22893;50.572;7.234;2022-07-29T03:31:08;23.20;73.20
24087;DHT22;22893;50.572;7.234;2022-07-29T03:33:36;23.20;73.20
24087;DHT22;22893;50.572;7.234;2022-07-29T03:36:03;23.20;73.20
24087;DHT22;22893;50.572;7.234;2022-07-29T03:38:33;23.20;73.30
24087;DHT22;22893;50.572;7.234;2022-07-29T03:41:05;23.20;73.20
24087;DHT22;22893;50.572;7.234;2022-07-29T03:43:34;23.20;73.30
24087;DHT22;22893;50.572;7.234;2022-07-29T03:46:04;23.20;73.20
24087;DHT22;22893;50.572;7.234;2022-07-29T03:48:35;23.20;73.20
24087;DHT22;22893;50.572;7.234;2022-07-29T03:51:04;23.20;73.20
24087;DHT22;22893;50.572;7.234;2022-07-29T03:53:32;23.20;73.20
24087;DHT22;22893;50.572;7.234;2022-07-29T03:56:02;23.20;73.20
24087;DHT22;22893;50.572;7.234;2022-07-29T03:58:31;23.20;73.20
24087;DHT22;22893;50.572;7.234;2022-07-29T04:00:59;23.20;73.20
24087;DHT22;22893;50.572;7.234;2022-07-29T04:03:27;23.20;73.10
24087;DHT22;22893;50.572;7.234;2022-07-29T04:06:03;23.30;73.10
24087;DHT22;22893;50.572;7.234;2022-07-29T04:08:34;23.40;72.80
24087;DHT22;22893;50.572;7.234;2022-07-29T04:11:02;23.40;72.50
24087;DHT22;22893;50.572;7.234;2022-07-29T04:13:31;23.40;72.40
24087;DHT22;22893;50.572;7.234;2022-07-29T04:15:59;23.40;72.30
24087;DHT22;22893;50.572;7.234;2022-07-29T04:18:27;23.50;72.20
24087;DHT22;22893;50.572;7.234;2022-07-29T04:20:54;23.50;72.20
24087;DHT22;22893;50.572;7.234;2022-07-29T04:23:22;23.50;72.10
24087;DHT22;22893;50.572;7.234;2022-07-29T04:25:49;23.50;72.00
24087;DHT22;22893;50.572;7.234;2022-07-29T04:28:17;23.50;72.00
24087;DHT22;22893;50.572;7.234;2022-07-29T04:30:45;23.50;72.00
24087;DHT22;22893;50.572;7.234;2022-07-29T04:33:12;23.50;72.00
24087;DHT22;22893;50.572;7.234;2022-07-29T04:35:40;23.50;72.00
24087;DHT22;22893;50.572;7.234;2022-07-29T04:38:08;23.50;71.90
24087;DHT22;22893;50.572;7.234;2022-07-29T04:40:35;23.50;72.00
24087;DHT22;22893;50.572;7.234;2022-07-29T04:43:03;23.50;72.00
24087;DHT22;22893;50.572;7.234;2022-07-29T04:45:30;23.50;72.00
24087;DHT22;22893;50.572;7.234;2022-07-29T04:47:58;23.50;72.00
24087;DHT22;22893;50.572;7.234;2022-07-29T04:50:25;23.50;71.90
24087;DHT22;22893;50.572;7.234;2022-07-29T04:52:53;23.50;71.90
24087;DHT22;22893;50.572;7.234;2022-07-29T04:55:20;23.50;71.80
24087;DHT22;22893;50.572;7.234;2022-07-29T04:57:48;23.50;72.00
24087;DHT22;22893;50.572;7.234;2022-07-29T05:00:15;23.50;71.80
24087;DHT22;22893;50.572;7.234;2022-07-29T05:02:43;23.50;72.40
24087;DHT22;22893;50.572;7.234;2022-07-29T05:05:11;23.50;71.80
24087;DHT22;22893;50.572;7.234;2022-07-29T05:07:38;23.50;71.80
24087;DHT22;22893;50.572;7.234;2022-07-29T05:10:06;23.50;71.80
24087;DHT22;22893;50.572;7.234;2022-07-29T05:12:34;23.40;72.00
24087;DHT22;22893;50.572;7.234;2022-07-29T05:15:02;23.50;72.00
24087;DHT22;22893;50.572;7.234;2022-07-29T05:17:30;23.50;71.90
24087;DHT22;22893;50.572;7.234;2022-07-29T05:19:57;23.50;71.90
24087;DHT22;22893;50.572;7.234;2022-07-29T05:22:25;23.50;71.80
24087;DHT22;22893;50.572;7.234;2022-07-29T05:24:52;23.50;72.00
24087;DHT22;22893;50.572;7.234;2022-07-29T05:27:20;23.50;72.00
24087;DHT22;22893;50.572;7.234;2022-07-29T05:29:47;23.50;72.00
24087;DHT22;22893;50.572;7.234;2022-07-29T05:32:15;23.50;72.00
24087;DHT22;22893;50.572;7.234;2022-07-29T05:34:43;23.50;72.00
24087;DHT22;22893;50.572;7.234;2022-07-29T05:37:10;23.50;72.00
24087;DHT22;22893;50.572;7.234;2022-07-29T05:39:40;23.50;72.00
24087;DHT22;22893;50.572;7.234;2022-07-29T05:42:10;23.50;72.00
24087;DHT22;22893;50.572;7.234;2022-07-29T05:44:38;23.50;72.00
24087;DHT22;22893;50.572;7.234;2022-07-29T05:47:06;23.50;72.90
24087;DHT22;22893;50.572;7.234;2022-07-29T05:49:34;23.50;72.20
24087;DHT22;22893;50.572;7.234;2022-07-29T05:52:02;23.50;72.10
24087;DHT22;22893;50.572;7.234;2022-07-29T05:54:29;23.60;72.20
24087;DHT22;22893;50.572;7.234;2022-07-29T05:56:57;23.50;73.00
24087;DHT22;22893;50.572;7.234;2022-07-29T05:59:24;23.40;74.20
24087;DHT22;22893;50.572;7.234;2022-07-29T06:01:52;23.20;74.70
24087;DHT22;22893;50.572;7.234;2022-07-29T06:04:19;23.10;75.30
24087;DHT22;22893;50.572;7.234;2022-07-29T06:06:47;23.10;75.60
24087;DHT22;22893;50.572;7.234;2022-07-29T06:09:15;23.00;75.70
24087;DHT22;22893;50.572;7.234;2022-07-29T06:11:42;23.00;75.40
24087;DHT22;22893;50.572;7.234;2022-07-29T06:14:10;23.10;74.80
24087;DHT22;22893;50.572;7.234;2022-07-29T06:16:37;23.20;74.50
24087;DHT22;22893;50.572;7.234;2022-07-29T06:19:05;23.30;74.10
24087;DHT22;22893;50.572;7.234;2022-07-29T06:21:33;23.30;73.90
24087;DHT22;22893;50.572;7.234;2022-07-29T06:24:00;23.30;73.80
24087;DHT22;22893;50.572;7.234;2022-07-29T06:26:28;23.30;73.90
24087;DHT22;22893;50.572;7.234;2022-07-29T06:28:55;23.30;73.90
24087;DHT22;22893;50.572;7.234;2022-07-29T06:31:23;23.40;73.90
24087;DHT22;22893;50.572;7.234;2022-07-29T06:33:51;23.30;73.90
24087;DHT22;22893;50.572;7.234;2022-07-29T06:36:19;23.30;73.90
24087;DHT22;22893;50.572;7.234;2022-07-29T06:38:46;23.30;73.90
24087;DHT22;22893;50.572;7.234;2022-07-29T06:41:14;23.20;75.30
24087;DHT22;22893;50.572;7.234;2022-07-29T06:43:43;23.10;76.20
24087;DHT22;22893;50.572;7.234;2022-07-29T06:46:15;23.00;76.70
24087;DHT22;22893;50.572;7.234;2022-07-29T06:48:45;22.90;77.20
24087;DHT22;22893;50.572;7.234;2022-07-29T06:51:14;22.80;77.30
24087;DHT22;22893;50.572;7.234;2022-07-29T06:53:42;22.80;77.10
24087;DHT22;22893;50.572;7.234;2022-07-29T06:56:10;22.90;77.10
24087;DHT22;22893;50.572;7.234;2022-07-29T06:58:40;22.80;77.20
24087;DHT22;22893;50.572;7.234;2022-07-29T07:01:07;22.80;77.10
24087;DHT22;22893;50.572;7.234;2022-07-29T07:03:35;22.90;76.90
24087;DHT22;22893;50.572;7.234;2022-07-29T07:06:03;22.90;76.40
24087;DHT22;22893;50.572;7.234;2022-07-29T07:08:30;23.00;76.20
24087;DHT22;22893;50.572;7.234;2022-07-29T07:10:58;22.90;75.90
24087;DHT22;22893;50.572;7.234;2022-07-29T07:13:25;22.90;75.90
24087;DHT22;22893;50.572;7.234;2022-07-29T07:15:54;22.90;75.90
24087;DHT22;22893;50.572;7.234;2022-07-29T07:18:22;23.00;75.70
24087;DHT22;22893;50.572;7.234;2022-07-29T07:20:49;23.10;75.80
24087;DHT22;22893;50.572;7.234;2022-07-29T07:23:17;23.10;75.40
24087;DHT22;22893;50.572;7.234;2022-07-29T07:25:44;23.20;75.10
24087;DHT22;22893;50.572;7.234;2022-07-29T07:28:12;23.20;75.60
24087;DHT22;22893;50.572;7.234;2022-07-29T13:32:28;24.00;72.60
24087;DHT22;22893;50.572;7.234;2022-07-29T13:34:58;24.00;72.60
24087;DHT22;22893;50.572;7.234;2022-07-29T13:37:27;24.10;72.60
24087;DHT22;22893;50.572;7.234;2022-07-29T13:39:56;24.00;72.50
24087;DHT22;22893;50.572;7.234;2022-07-29T13:42:26;24.10;72.60
24087;DHT22;22893;50.572;7.234;2022-07-29T13:44:54;24.10;72.60
24087;DHT22;22893;50.572;7.234;2022-07-29T13:47:21;24.10;72.40
24087;DHT22;22893;50.572;7.234;2022-07-29T13:49:49;24.10;72.60
24087;DHT22;22893;50.572;7.234;2022-07-29T13:52:17;24.10;72.40
24087;DHT22;22893;50.572;7.234;2022-07-29T13:54:44;24.10;72.50
24087;DHT22;22893;50.572;7.234;2022-07-29T13:57:13;24.10;72.50
24087;DHT22;22893;50.572;7.234;2022-07-29T13:59:41;24.10;72.50
24087;DHT22;22893;50.572;7.234;2022-07-29T14:02:10;24.10;72.40
24087;DHT22;22893;50.572;7.234;2022-07-29T14:04:39;24.10;72.40
24087;DHT22;22893;50.572;7.234;2022-07-29T14:07:06;24.10;72.30
24087;DHT22;22893;50.572;7.234;2022-07-29T14:09:34;24.20;72.30
24087;DHT22;22893;50.572;7.234;2022-07-29T14:12:01;24.10;72.20
24087;DHT22;22893;50.572;7.234;2022-07-29T14:14:29;24.20;72.30
24087;DHT22;22893;50.572;7.234;2022-07-29T14:16:59;24.20;72.40
24087;DHT22;22893;50.572;7.234;2022-07-29T14:19:27;24.20;72.30
24087;DHT22;22893;50.572;7.234;2022-07-29T14:21:54;24.20;72.40
24087;DHT22;22893;50.572;7.234;2022-07-29T14:24:22;24.20;72.30
24087;DHT22;22893;50.572;7.234;2022-07-29T14:26:49;24.20;72.40
24087;DHT22;22893;50.572;7.234;2022-07-29T14:29:17;24.20;72.30
24087;DHT22;22893;50.572;7.234;2022-07-29T14:31:44;24.20;71.80
24087;DHT22;22893;50.572;7.234;2022-07-29T14:34:12;24.20;72.30
24087;DHT22;22893;50.572;7.234;2022-07-29T14:36:41;24.20;72.20
24087;DHT22;22893;50.572;7.234;2022-07-29T14:39:10;24.20;72.30
24087;DHT22;22893;50.572;7.234;2022-07-29T14:41:37;24.20;72.30
24087;DHT22;22893;50.572;7.234;2022-07-29T14:44:05;24.20;72.30
24087;DHT22;22893;50.572;7.234;2022-07-29T14:46:32;24.20;72.20
24087;DHT22;22893;50.572;7.234;2022-07-29T14:49:00;24.20;72.20
24087;DHT22;22893;50.572;7.234;2022-07-29T14:51:27;24.20;72.20
24087;DHT22;22893;50.572;7.234;2022-07-29T14:53:55;24.20;72.10
24087;DHT22;22893;50.572;7.234;2022-07-29T14:56:22;24.20;72.20
24087;DHT22;22893;50.572;7.234;2022-07-29T14:58:50;24.30;72.10
24087;DHT22;22893;50.572;7.234;2022-07-29T15:01:18;24.20;72.10
24087;DHT22;22893;50.572;7.234;2022-07-29T15:03:45;24.20;72.10
24087;DHT22;22893;50.572;7.234;2022-07-29T15:06:13;24.30;72.10
24087;DHT22;22893;50.572;7.234;2022-07-29T15:08:40;24.30;72.00
24087;DHT22;22893;50.572;7.234;2022-07-29T15:11:08;24.30;72.00
24087;DHT22;22893;50.572;7.234;2022-07-29T15:13:35;24.30;72.10
24087;DHT22;22893;50.572;7.234;2022-07-29T15:16:05;24.30;72.10
24087;DHT22;22893;50.572;7.234;2022-07-29T15:18:33;24.30;72.10
24087;DHT22;22893;50.572;7.234;2022-07-29T15:21:00;24.30;71.90
24087;DHT22;22893;50.572;7.234;2022-07-29T15:23:28;24.30;72.00
24087;DHT22;22893;50.572;7.234;2022-07-29T15:25:56;24.30;71.80
24087;DHT22;22893;50.572;7.234;2022-07-29T15:28:23;24.40;72.00
24087;DHT22;22893;50.572;7.234;2022-07-29T15:30:51;24.30;71.80
24087;DHT22;22893;50.572;7.234;2022-07-29T15:33:19;24.30;71.90
24087;DHT22;22893;50.572;7.234;2022-07-29T15:35:46;24.30;71.80
24087;DHT22;22893;50.572;7.234;2022-07-29T15:38:15;24.40;71.90
24087;DHT22;22893;50.572;7.234;2022-07-29T15:40:42;24.30;71.80
24087;DHT22;22893;50.572;7.234;2022-07-29T15:43:12;24.40;71.80
24087;DHT22;22893;50.572;7.234;2022-07-29T15:45:41;24.40;71.80
24087;DHT22;22893;50.572;7.234;2022-07-29T15:48:10;24.40;71.80
24087;DHT22;22893;50.572;7.234;2022-07-29T15:50:39;24.40;71.80
24087;DHT22;22893;50.572;7.234;2022-07-29T15:53:26;24.40;71.80
24087;DHT22;22893;50.572;7.234;2022-07-29T15:55:53;24.40;71.60
24087;DHT22;22893;50.572;7.234;2022-07-29T15:58:21;24.40;71.80
24087;DHT22;22893;50.572;7.234;2022-07-29T16:00:48;24.40;71.60
24087;DHT22;22893;50.572;7.234;2022-07-29T16:03:16;24.40;71.60
24087;DHT22;22893;50.572;7.234;2022-07-29T16:05:45;24.40;71.60
24087;DHT22;22893;50.572;7.234;2022-07-29T16:08:12;24.40;71.60
24087;DHT22;22893;50.572;7.234;2022-07-29T16:10:40;24.40;71.70
24087;DHT22;22893;50.572;7.234;2022-07-29T16:13:07;24.40;71.60
24087;DHT22;22893;50.572;7.234;2022-07-29T16:15:35;24.40;71.60
24087;DHT22;22893;50.572;7.234;2022-07-29T16:18:03;24.40;71.60
24087;DHT22;22893;50.572;7.234;2022-07-29T16:20:30;24.40;71.50
24087;DHT22;22893;50.572;7.234;2022-07-29T16:22:58;24.40;71.50
24087;DHT22;22893;50.572;7.234;2022-07-29T16:25:25;24.40;71.60
24087;DHT22;22893;50.572;7.234;2022-07-29T16:27:53;24.50;71.60
24087;DHT22;22893;50.572;7.234;2022-07-29T16:30:21;24.50;71.50
24087;DHT22;22893;50.572;7.234;2022-07-29T16:32:48;24.50;71.60
24087;DHT22;22893;50.572;7.234;2022-07-29T16:35:16;24.50;71.60
24087;DHT22;22893;50.572;7.234;2022-07-29T16:37:43;24.50;71.60
24087;DHT22;22893;50.572;7.234;2022-07-29T16:40:11;24.50;71.50
24087;DHT22;22893;50.572;7.234;2022-07-29T16:42:39;24.50;71.50
24087;DHT22;22893;50.572;7.234;2022-07-29T16:45:08;24.40;71.30
24087;DHT22;22893;50.572;7.234;2022-07-29T16:47:35;24.40;71.40
24087;DHT22;22893;50.572;7.234;2022-07-29T16:50:03;24.40;71.30
24087;DHT22;22893;50.572;7.234;2022-07-29T16:52:31;24.50;71.50
24087;DHT22;22893;50.572;7.234;2022-07-29T16:54:59;24.50;71.40
24087;DHT22;22893;50.572;7.234;2022-07-29T16:57:26;24.50;71.50
24087;DHT22;22893;50.572;7.234;2022-07-29T16:59:54;24.50;71.50
24087;DHT22;22893;50.572;7.234;2022-07-29T17:02:21;24.50;71.40
24087;DHT22;22893;50.572;7.234;2022-07-29T17:04:49;24.50;71.40
24087;DHT22;22893;50.572;7.234;2022-07-29T17:07:17;24.50;71.40
24087;DHT22;22893;50.572;7.234;2022-07-29T17:09:44;24.40;71.20
24087;DHT22;22893;50.572;7.234;2022-07-29T17:12:12;24.50;71.30
24087;DHT22;22893;50.572;7.234;2022-07-29T17:14:40;24.50;71.80
24087;DHT22;22893;50.572;7.234;2022-07-29T17:17:07;24.50;71.40
24087;DHT22;22893;50.572;7.234;2022-07-29T17:19:35;24.50;71.30
24087;DHT22;22893;50.572;7.234;2022-07-29T17:22:04;24.50;71.40
24087;DHT22;22893;50.572;7.234;2022-07-29T17:24:32;24.50;71.30
24087;DHT22;22893;50.572;7.234;2022-07-29T17:27:00;24.50;71.30
24087;DHT22;22893;50.572;7.234;2022-07-29T17:29:28;24.50;71.30
24087;DHT22;22893;50.572;7.234;2022-07-29T17:31:56;24.50;71.30
24087;DHT22;22893;50.572;7.234;2022-07-29T17:34:24;24.50;71.30
24087;DHT22;22893;50.572;7.234;2022-07-29T17:36:52;24.50;71.30
24087;DHT22;22893;50.572;7.234;2022-07-29T17:39:20;24.50;71.10
24087;DHT22;22893;50.572;7.234;2022-07-29T17:41:47;24.50;71.10
24087;DHT22;22893;50.572;7.234;2022-07-29T17:44:15;24.50;71.00
24087;DHT22;22893;50.572;7.234;2022-07-29T17:46:42;24.40;70.90
24087;DHT22;22893;50.572;7.234;2022-07-29T17:49:10;24.50;71.10
24087;DHT22;22893;50.572;7.234;2022-07-29T17:51:37;24.50;71.00
24087;DHT22;22893;50.572;7.234;2022-07-29T17:54:05;24.50;70.70
24087;DHT22;22893;50.572;7.234;2022-07-29T17:56:33;24.50;70.60
24087;DHT22;22893;50.572;7.234;2022-07-29T17:59:00;24.50;70.70
24087;DHT22;22893;50.572;7.234;2022-07-29T18:01:29;24.60;70.60
24087;DHT22;22893;50.572;7.234;2022-07-29T18:03:57;24.60;70.60
24087;DHT22;22893;50.572;7.234;2022-07-29T18:06:24;24.60;70.50
24087;DHT22;22893;50.572;7.234;2022-07-29T18:08:52;24.60;70.30
24087;DHT22;22893;50.572;7.234;2022-07-29T18:11:21;24.60;70.30
24087;DHT22;22893;50.572;7.234;2022-07-29T18:13:49;24.60;70.30
24087;DHT22;22893;50.572;7.234;2022-07-29T18:16:17;24.60;70.20
24087;DHT22;22893;50.572;7.234;2022-07-29T18:18:45;24.60;70.20
24087;DHT22;22893;50.572;7.234;2022-07-29T18:21:13;24.60;70.20
24087;DHT22;22893;50.572;7.234;2022-07-29T18:23:40;24.60;70.20
24087;DHT22;22893;50.572;7.234;2022-07-29T18:26:09;24.50;70.10
24087;DHT22;22893;50.572;7.234;2022-07-29T18:28:36;24.60;70.20
24087;DHT22;22893;50.572;7.234;2022-07-29T18:31:04;24.60;70.10
24087;DHT22;22893;50.572;7.234;2022-07-29T18:33:31;24.60;70.00
24087;DHT22;22893;50.572;7.234;2022-07-29T18:35:59;24.50;70.00
24087;DHT22;22893;50.572;7.234;2022-07-29T18:38:26;24.50;69.80
24087;DHT22;22893;50.572;7.234;2022-07-29T18:40:54;24.60;69.80
24087;DHT22;22893;50.572;7.234;2022-07-29T18:43:22;24.50;69.70
24087;DHT22;22893;50.572;7.234;2022-07-29T18:45:49;24.50;69.70
24087;DHT22;22893;50.572;7.234;2022-07-29T18:48:17;24.50;69.50
24087;DHT22;22893;50.572;7.234;2022-07-29T18:50:44;24.50;69.60
24087;DHT22;22893;50.572;7.234;2022-07-29T18:53:12;24.50;69.60
24087;DHT22;22893;50.572;7.234;2022-07-29T18:55:40;24.50;69.50
24087;DHT22;22893;50.572;7.234;2022-07-29T18:58:07;24.50;69.50
24087;DHT22;22893;50.572;7.234;2022-07-29T19:00:35;24.50;69.50
24087;DHT22;22893;50.572;7.234;2022-07-29T19:03:02;24.50;69.40
24087;DHT22;22893;50.572;7.234;2022-07-29T19:05:30;24.50;69.20
24087;DHT22;22893;50.572;7.234;2022-07-29T19:07:58;24.50;69.40
24087;DHT22;22893;50.572;7.234;2022-07-29T19:10:25;24.50;69.40
24087;DHT22;22893;50.572;7.234;2022-07-29T19:12:53;24.50;69.30
24087;DHT22;22893;50.572;7.234;2022-07-29T19:15:22;24.50;69.40
24087;DHT22;22893;50.572;7.234;2022-07-29T19:17:50;24.50;69.10
24087;DHT22;22893;50.572;7.234;2022-07-29T19:20:17;24.50;69.10
24087;DHT22;22893;50.572;7.234;2022-07-29T19:22:45;24.50;69.10
24087;DHT22;22893;50.572;7.234;2022-07-29T19:25:12;24.50;69.10
24087;DHT22;22893;50.572;7.234;2022-07-29T19:27:40;24.50;69.00
24087;DHT22;22893;50.572;7.234;2022-07-29T19:30:08;24.50;69.00
24087;DHT22;22893;50.572;7.234;2022-07-29T19:32:36;24.50;69.10
24087;DHT22;22893;50.572;7.234;2022-07-29T19:35:04;24.50;69.00
24087;DHT22;22893;50.572;7.234;2022-07-29T19:37:51;24.50;69.10
24087;DHT22;22893;50.572;7.234;2022-07-29T19:40:20;24.50;69.10
